• Join FlightAware (Why Join?)
  • Login
  • US Flag 
12:58PM EST


 

Airport Tracker/Info


-or-


 

Live Flight TrackerFlight Track Log ✈ EJA951 ✈ 24-Mar-2014 ✈ KCOU - KASE

Flight Track Log - Related Links

Times and Time Zones

All times are in EDT time to prevent confusion due to time zone crossing. See the EJA951 flight status page for this flight to view local times or setup timezone preferences in your user account.

Time Position Orientation Groundspeed Altitude Reporting Facility
EDT Latitude Longitude Course Direction KTS MPH feet Rate Location/Type
10:42AM 38.7939 -92.2350 260° West 183 211 2,300  Level Kansas City Center
10:42AM 38.7919 -92.2489 260° West 201 231 3,100 3,360 Climbing Kansas City Center
10:43AM 38.8447 -92.2906 328° Northwest 236 272 6,700 3,900 Climbing Kansas City Center
10:44AM 38.8878 -92.3678 306° West 262 302 11,200 3,360 Climbing Kansas City Center
10:45AM 38.9286 -92.4578 300° West 273 314 13,600 2,940 Climbing Kansas City Center
10:46AM 38.9725 -92.5597 299° West 302 348 17,400 2,280 Climbing Kansas City Center
10:47AM 39.0172 -92.6625 299° West 316 364 18,400 1,500 Climbing Kansas City Center
10:48AM 39.0711 -92.7872 299° West 327 376 20,600 1,920 Climbing Kansas City Center
10:49AM 39.1183 -92.8981 299° West 338 389 22,400 1,920 Climbing Kansas City Center
10:51AM 39.1656 -93.0097 299° West 347 399 24,600 2,340 Climbing Kansas City Center
10:52AM 39.2139 -93.1217 299° West 350 403 27,400 2,400 Climbing Kansas City Center
10:53AM 39.2603 -93.2292 299° West 351 404 29,600 2,160 Climbing Kansas City Center
10:54AM 39.3100 -93.3475 299° West 365 420 31,900 1,800 Climbing Kansas City Center
10:55AM 39.3703 -93.4903 299° West 375 432 33,400 1,140 Climbing Kansas City Center
10:56AM 39.4247 -93.6211 298° West 406 467 34,300 780 Climbing Kansas City Center
10:57AM 39.4814 -93.7547 299° West 426 490 35,100 840 Climbing Kansas City Center
10:58AM 39.5447 -93.9064 298° West 427 491 36,100 900 Climbing Kansas City Center
10:59AM 39.5983 -94.0356 298° West 428 493 37,000 900 Climbing Kansas City Center
11:00AM 39.6600 -94.1858 298° West 426 490 38,000 900 Climbing Kansas City Center
11:01AM 39.7125 -94.3150 298° West 426 490 38,900 900 Climbing Kansas City Center
11:02AM 39.7739 -94.4639 298° West 422 486 39,900 480 Climbing Kansas City Center
11:03AM 39.8258 -94.5919 298° West 421 484 40,000  Climbing Kansas City Center
11:04AM 39.8797 -94.7239 298° West 428 493 40,000  Level Kansas City Center
11:05AM 39.9422 -94.8800 298° West 433 498 40,000  Level Kansas City Center
11:06AM 39.9786 -95.0219 289° West 435 501 40,000  Level Kansas City Center
11:07AM 40.0119 -95.1944 284° West 434 499 40,000  Level Kansas City Center
11:08AM 40.0392 -95.3378 284° West 435 501 40,000  Level Kansas City Center
11:09AM 40.0711 -95.5064 284° West 433 498 40,000  Level Kansas City Center
11:10AM 40.0986 -95.6539 284° West 433 498 40,000  Level Kansas City Center
11:11AM 40.1294 -95.8228 283° West 433 498 40,000  Level Kansas City Center
11:12AM 40.1508 -95.9339 284° West 432 497 40,000  Level Minneapolis Center
11:13AM 40.1789 -96.0867 284° West 432 497 40,000  Level Minneapolis Center
11:14AM 40.2022 -96.2411 281° West 432 497 40,000  Level Minneapolis Center
11:15AM 40.2042 -96.3964 271° West 430 495 40,000  Level Minneapolis Center
11:16AM 40.2064 -96.5522 271° West 430 495 40,000  Level Minneapolis Center
11:17AM 40.2092 -96.7428 271° West 430 495 40,000  Level Minneapolis Center
11:18AM 40.2119 -96.9008 271° West 431 496 40,000  Level Minneapolis Center
11:19AM 40.2139 -97.0586 271° West 431 496 40,000  Level Minneapolis Center
11:20AM 40.2147 -97.2161 270° West 431 496 40,000  Level Minneapolis Center
11:21AM 40.2167 -97.3728 271° West 431 496 40,000  Level Minneapolis Center
11:22AM 40.2189 -97.5322 271° West 431 496 40,000  Level Minneapolis Center
11:23AM 40.2197 -97.6925 270° West 434 499 40,000  Level Minneapolis Center
11:24AM 40.2211 -97.8850 271° West 434 499 40,000  Level Minneapolis Center
11:25AM 40.2217 -98.0447 270° West 435 501 40,000  Level Minneapolis Center
11:26AM 40.2219 -98.2061 270° West 436 502 40,000  Level Minneapolis Center
11:27AM 40.2219 -98.3678 270° West 440 506 40,000  Level Minneapolis Center
11:28AM 40.2219 -98.5303 270° West 440 506 40,000  Level Minneapolis Center
11:29AM 40.2219 -98.6917 270° West 440 506 40,000  Level Minneapolis Center
11:30AM 40.2211 -98.8531 270° West 440 506 40,000  Level Minneapolis Center
11:32AM 40.2108 -99.0139 265° West 440 506 40,000  Level Minneapolis Center
11:33AM 40.2006 -99.1767 265° West 441 507 40,000  Level Minneapolis Center
11:34AM 40.1867 -99.3722 265° West 445 512 40,000  Level Minneapolis Center
11:35AM 40.1744 -99.5333 264° West 445 512 40,000  Level Minneapolis Center
11:36AM 40.1628 -99.6972 265° West 446 513 40,000  Level Denver Center
11:37AM 40.1506 -99.8600 264° West 448 516 40,000  Level Denver Center
11:38AM 40.1369 -100.0306 264° West 449 517 40,000  Level Denver Center
11:39AM 40.1231 -100.2131 264° West 449 517 40,000  Level Denver Center
11:40AM 40.1108 -100.3672 264° West 448 516 40,000  Level Denver Center
11:41AM 40.0961 -100.5497 264° West 449 517 40,000  Level Denver Center
11:42AM 40.0833 -100.7047 264° West 448 516 40,000  Level Denver Center
11:43AM 40.0711 -100.8606 264° West 448 516 40,000  Level Denver Center
11:44AM 40.0547 -101.0419 263° West 448 516 40,000  Level Denver Center
11:45AM 40.0419 -101.1969 264° West 449 517 40,000  Level Denver Center
11:46AM 40.0253 -101.3786 263° West 449 517 40,000  Level Denver Center
11:47AM 40.0103 -101.5336 263° West 449 517 40,000  Level Denver Center
11:48AM 39.9939 -101.7161 263° West 449 517 40,000  Level Denver Center
11:49AM 39.9753 -101.9225 263° West 449 517 40,000  Level Denver Center
11:50AM 39.9606 -102.0778 263° West 450 518 40,000  Level Denver Center
11:51AM 39.9461 -102.2322 263° West 450 518 40,000  Level Denver Center
11:52AM 39.9283 -102.4142 263° West 450 518 40,000  Level Denver Center
11:53AM 39.9131 -102.5706 263° West 453 521 40,000  Level Denver Center
11:55AM 39.8931 -102.7550 262° West 454 522 40,000  Level Denver Center
11:56AM 39.8761 -102.9192 262° West 455 524 40,000  Level Denver Center
11:57AM 39.8600 -103.0831 263° West 457 526 40,000  Level Denver Center
11:58AM 39.8394 -103.2803 262° West 459 528 40,000 -120 Level Denver Center
11:59AM 39.8258 -103.4125 262° West 460 529 39,800 -720 Descending Denver Center
12:00PM 39.8039 -103.6133 262° West 465 535 38,600 -1,200 Descending Denver Center
12:01PM 39.7817 -103.8158 262° West 470 541 37,400 -1,080 Descending Denver Center
12:02PM 39.7622 -103.9867 262° West 476 548 36,400 -1,020 Descending Denver Center
12:03PM 39.7433 -104.1575 262° West 480 552 35,400 -1,020 Descending Denver Center
12:04PM 39.7242 -104.3244 262° West 472 543 34,400 -1,020 Descending Denver Center
12:05PM 39.7056 -104.4833 261° West 453 521 33,400 -1,080 Descending Denver Center
12:06PM 39.6842 -104.6700 262° West 450 518 32,200 -1,020 Descending Denver Center
12:07PM 39.6689 -104.8242 263° West 448 516 31,300 -1,020 Descending Denver Center
12:08PM 39.6489 -105.0258 263° West 475 547 30,100 -900 Descending Denver Center
12:09PM 39.6314 -105.1928 262° West 474 545 29,500 -1,140 Descending Denver Center
12:10PM 39.6128 -105.3639 262° West 477 549 27,800 -1,860 Descending Denver Center
12:11PM 39.5953 -105.5292 262° West 469 540 25,700 -2,040 Descending Denver Center
12:12PM 39.5789 -105.6753 262° West 416 479 23,600 -2,040 Descending Denver Center
12:13PM 39.5656 -105.8047 262° West 366 421 21,500 -1,800 Descending Denver Center
12:14PM 39.5500 -105.9444 262° West 334 384 20,000 -780 Descending Denver Center
12:15PM 39.5367 -106.0611 262° West 331 381 20,000  Level Denver Center
12:16PM 39.5222 -106.1931 262° West 344 396 20,000  Level Denver Center
12:17PM 39.5072 -106.3208 261° West 354 407 20,000  Level Denver Center
12:19PM 39.4928 -106.4419 261° West 342 394 20,000 -420 Level Denver Center
12:20PM 39.4789 -106.5633 262° West 322 371 19,200 -1,500 Descending Denver Center
12:21PM 39.4664 -106.6672 261° West 309 356 16,900 -2,340 Descending Denver Center
12:22PM 39.4525 -106.7839 261° West 294 338 14,400 -1,680 Descending Denver Center
12:23PM 39.4331 -106.8603 252° West 246 283 13,500 -1,080 Descending Denver Center
12:24PM 39.3953 -106.9175 230° Southwest 225 259 12,200 -1,260 Descending Denver Center
12:25PM 39.3600 -106.9342 200° South 189 217 11,000 -1,440 Descending Denver Center
12:26PM 39.2994 -106.9231 172° South 170 196 9,300 -1,200 Descending Denver Center
12:27PM 39.2633 -106.8889 144° Southeast 168 193 8,500 -780 Descending Denver Center